createdAt,value
2022-11-24T00:01:12.419Z,9.70
2022-11-24T00:03:40.312Z,9.80
2022-11-24T00:06:10.103Z,9.80
2022-11-24T00:08:38.976Z,9.80
2022-11-24T00:11:09.961Z,9.90
2022-11-24T00:13:39.271Z,9.80
2022-11-24T00:16:13.139Z,9.90
2022-11-24T00:18:42.112Z,9.90
2022-11-24T00:21:09.929Z,9.90
2022-11-24T00:23:38.360Z,9.90
2022-11-24T00:26:08.255Z,9.90
2022-11-24T00:28:37.097Z,10.00
2022-11-24T00:31:06.743Z,9.90
2022-11-24T00:33:35.888Z,9.90
2022-11-24T00:36:03.768Z,9.90
2022-11-24T00:38:31.628Z,9.90
2022-11-24T00:40:59.467Z,9.90
2022-11-24T00:43:27.318Z,9.90
2022-11-24T00:45:55.339Z,9.90
2022-11-24T00:48:23.631Z,9.90
2022-11-24T00:50:58.609Z,9.90
2022-11-24T00:53:27.282Z,9.90
2022-11-24T00:55:55.836Z,9.90
2022-11-24T00:58:24.227Z,9.90
2022-11-24T01:00:53.200Z,10.00
2022-11-24T01:03:22.547Z,10.00
2022-11-24T01:05:50.573Z,10.00
2022-11-24T01:08:19.739Z,10.00
2022-11-24T01:10:47.508Z,10.00
2022-11-24T01:13:15.330Z,10.00
2022-11-24T01:15:43.148Z,10.00
2022-11-24T01:18:11.174Z,10.00
2022-11-24T01:20:39.041Z,10.00
2022-11-24T01:23:07.649Z,9.90
2022-11-24T01:25:40.005Z,10.00
2022-11-24T01:28:07.815Z,10.00
2022-11-24T01:30:35.593Z,10.00
2022-11-24T01:33:03.464Z,10.00
2022-11-24T01:35:31.271Z,10.00
2022-11-24T01:37:59.079Z,10.00
2022-11-24T01:40:26.851Z,10.10
2022-11-24T01:42:55.913Z,10.10
2022-11-24T01:45:34.850Z,10.00
2022-11-24T01:48:06.398Z,10.00
2022-11-24T01:50:36.510Z,10.00
2022-11-24T01:53:05.588Z,10.00
2022-11-24T01:55:37.447Z,10.00
2022-11-24T01:58:09.204Z,10.10
2022-11-24T02:00:39.433Z,10.00
2022-11-24T02:03:08.305Z,10.00
2022-11-24T02:05:42.535Z,10.00
2022-11-24T02:08:16.187Z,10.10
2022-11-24T02:10:46.389Z,10.10
2022-11-24T02:13:16.426Z,10.10
2022-11-24T02:15:47.318Z,10.10
2022-11-24T02:18:15.129Z,10.00
2022-11-24T02:20:42.986Z,10.00
2022-11-24T02:23:16.966Z,10.10
2022-11-24T02:25:52.695Z,10.10
2022-11-24T02:28:23.776Z,10.00
2022-11-24T02:30:53.036Z,10.00
2022-11-24T02:33:22.431Z,10.00
2022-11-24T02:35:50.368Z,10.00
2022-11-24T02:38:18.311Z,10.00
2022-11-24T02:40:49.552Z,10.00
2022-11-24T02:43:21.585Z,9.90
2022-11-24T02:45:50.789Z,9.90
2022-11-24T02:48:18.604Z,10.00
2022-11-24T02:50:46.338Z,10.00
2022-11-24T02:53:14.138Z,9.90
2022-11-24T02:55:42.017Z,9.90
2022-11-24T02:58:09.991Z,9.90
2022-11-24T03:00:37.861Z,9.90
2022-11-24T03:03:07.123Z,9.90
2022-11-24T03:05:35.024Z,9.80
2022-11-24T03:08:02.879Z,9.90
2022-11-24T03:10:30.626Z,9.90
2022-11-24T03:12:58.480Z,9.90
2022-11-24T03:15:26.333Z,9.90
2022-11-24T03:17:56.492Z,9.80
2022-11-24T03:20:25.924Z,9.90
2022-11-24T03:22:53.923Z,9.90
2022-11-24T03:25:22.095Z,10.00
2022-11-24T03:27:49.940Z,9.90
2022-11-24T03:36:58.324Z,9.80
2022-11-24T03:39:26.095Z,9.70
2022-11-24T03:41:53.919Z,9.80
2022-11-24T03:44:21.749Z,9.80
2022-11-24T03:46:50.840Z,9.70
2022-11-24T03:49:19.018Z,9.80
2022-11-24T03:51:46.830Z,9.80
2022-11-24T03:54:15.979Z,9.80
2022-11-24T03:56:43.765Z,9.80
2022-11-24T03:59:11.599Z,9.80
2022-11-24T04:01:39.500Z,9.80
2022-11-24T04:04:07.356Z,9.90
2022-11-24T04:06:35.128Z,9.80
2022-11-24T04:09:02.875Z,9.80
2022-11-24T04:11:49.460Z,9.80
2022-11-24T04:14:18.284Z,9.80
2022-11-24T04:16:46.196Z,9.80
2022-11-24T04:19:14.021Z,9.80
2022-11-24T04:21:41.902Z,9.80
2022-11-24T04:24:09.789Z,9.80
2022-11-24T04:26:39.036Z,9.80
2022-11-24T04:29:06.919Z,9.90
2022-11-24T04:31:34.850Z,9.90
2022-11-24T04:34:02.752Z,9.90
2022-11-24T04:36:30.521Z,9.90
2022-11-24T04:39:23.849Z,9.90
2022-11-24T04:41:48.000Z,9.90
2022-11-24T04:44:15.875Z,9.90
2022-11-24T04:46:43.780Z,9.90
2022-11-24T04:49:11.900Z,9.90
2022-11-24T04:51:39.960Z,9.90
2022-11-24T04:54:08.239Z,9.90
2022-11-24T04:56:36.210Z,9.90
2022-11-24T04:59:08.487Z,9.90
2022-11-24T05:01:36.718Z,9.80
2022-11-24T05:04:04.839Z,9.90
2022-11-24T05:06:33.147Z,9.80
2022-11-24T05:09:00.980Z,9.80
2022-11-24T05:11:28.818Z,9.80
2022-11-24T05:13:56.608Z,9.80
2022-11-24T05:16:25.902Z,9.90
2022-11-24T05:18:53.876Z,9.90
2022-11-24T05:21:28.518Z,9.90
2022-11-24T05:23:56.277Z,9.90
2022-11-24T05:26:24.085Z,9.90
2022-11-24T05:28:51.952Z,9.90
2022-11-24T05:31:19.942Z,9.90
2022-11-24T05:33:49.719Z,10.00
2022-11-24T05:36:31.428Z,10.00
2022-11-24T05:38:59.239Z,10.00
2022-11-24T05:41:27.661Z,10.00
2022-11-24T05:43:55.506Z,10.00
2022-11-24T05:46:23.335Z,10.00
2022-11-24T05:48:52.469Z,10.00
2022-11-24T05:51:20.263Z,10.00
2022-11-24T05:53:48.123Z,10.00
2022-11-24T05:56:16.020Z,10.00
2022-11-24T05:58:44.235Z,9.90
2022-11-24T06:01:12.183Z,9.90
2022-11-24T06:03:39.973Z,9.90
2022-11-24T06:06:09.962Z,9.90
2022-11-24T06:08:37.882Z,9.90
2022-11-24T06:11:18.400Z,9.90
2022-11-24T06:13:48.145Z,9.80
2022-11-24T06:16:16.394Z,9.80
2022-11-24T06:18:44.239Z,9.70
2022-11-24T06:21:13.402Z,9.70
2022-11-24T06:23:41.518Z,9.70
2022-11-24T06:26:09.697Z,9.60
2022-11-24T06:28:37.560Z,9.60
2022-11-24T06:31:06.068Z,9.50
2022-11-24T06:33:34.276Z,9.50
2022-11-24T06:36:03.556Z,9.40
2022-11-24T06:38:33.364Z,9.30
2022-11-24T06:41:02.223Z,9.30
2022-11-24T06:43:31.186Z,9.30
2022-11-24T06:45:59.860Z,9.30
2022-11-24T06:48:28.698Z,9.20
2022-11-24T06:51:01.671Z,9.20
2022-11-24T06:53:32.911Z,9.20
2022-11-24T06:56:01.609Z,9.10
2022-11-24T06:58:29.465Z,9.10
2022-11-24T07:00:57.450Z,9.00
2022-11-24T07:03:25.310Z,9.00
2022-11-24T07:05:58.032Z,8.90
2022-11-24T07:08:26.637Z,8.90
2022-11-24T07:10:55.741Z,8.80
2022-11-24T07:13:23.726Z,8.70
2022-11-24T07:15:51.576Z,8.80
2022-11-24T07:18:19.369Z,8.70
2022-11-24T07:20:47.169Z,8.60
2022-11-24T07:23:15.129Z,8.50
2022-11-24T07:25:42.950Z,8.40
2022-11-24T07:28:12.193Z,8.40
2022-11-24T07:30:39.977Z,8.40
2022-11-24T07:33:07.812Z,8.40
2022-11-24T07:35:35.605Z,8.40
2022-11-24T07:38:03.408Z,8.40
2022-11-24T07:40:31.163Z,8.50
2022-11-24T07:43:01.346Z,8.40
2022-11-24T07:45:30.536Z,8.40
2022-11-24T07:47:58.567Z,8.40
2022-11-24T07:50:26.536Z,8.40
2022-11-24T07:52:54.452Z,8.40
2022-11-24T07:55:22.362Z,8.30
2022-11-24T07:57:50.120Z,8.20
2022-11-24T08:00:18.978Z,8.20
2022-11-24T08:02:48.140Z,8.20
2022-11-24T08:05:16.165Z,8.30
2022-11-24T08:07:44.038Z,8.20
2022-11-24T08:10:11.844Z,8.20
2022-11-24T08:12:40.998Z,8.30
2022-11-24T08:15:11.319Z,8.20
2022-11-24T08:17:39.591Z,8.20
2022-11-24T08:20:10.813Z,8.20
2022-11-24T08:22:38.569Z,8.20
2022-11-24T08:25:07.375Z,8.20
2022-11-24T08:27:35.217Z,8.20
2022-11-24T08:30:02.967Z,8.30
2022-11-24T08:32:30.771Z,8.30
2022-11-24T08:35:13.047Z,8.40
2022-11-24T08:37:42.887Z,8.40
2022-11-24T08:40:12.349Z,8.40
2022-11-24T08:42:40.673Z,8.40
2022-11-24T08:45:20.364Z,8.40
2022-11-24T08:47:52.941Z,8.50
2022-11-24T08:50:20.958Z,8.40
2022-11-24T08:52:50.243Z,8.40
2022-11-24T08:55:18.065Z,8.40
2022-11-24T08:57:45.955Z,8.40
2022-11-24T09:00:21.933Z,8.40
2022-11-24T09:02:57.037Z,8.50
2022-11-24T09:05:50.700Z,8.50
2022-11-24T09:08:14.258Z,8.60
2022-11-24T09:10:42.087Z,8.60
2022-11-24T09:13:09.889Z,8.60
2022-11-24T09:15:37.703Z,8.60
2022-11-24T09:18:05.521Z,8.60
2022-11-24T09:20:33.318Z,8.60
2022-11-24T09:23:01.064Z,8.60
2022-11-24T09:25:30.245Z,8.70
2022-11-24T09:27:59.770Z,8.70
2022-11-24T09:30:28.009Z,8.70
2022-11-24T09:32:56.606Z,8.70
2022-11-24T09:35:24.786Z,8.80
2022-11-24T09:37:52.661Z,8.80
2022-11-24T09:40:20.706Z,8.90
2022-11-24T09:42:59.628Z,8.90
2022-11-24T09:48:35.996Z,9.00
2022-11-24T09:51:05.378Z,9.00
2022-11-24T09:53:38.814Z,9.00
2022-11-24T09:56:23.304Z,9.10
2022-11-24T09:58:55.313Z,9.10
2022-11-24T10:01:29.305Z,9.20
2022-11-24T10:04:04.314Z,9.20
2022-11-24T10:06:49.129Z,9.20
2022-11-24T10:09:46.420Z,9.20
2022-11-24T10:12:23.092Z,9.20
2022-11-24T10:15:06.520Z,9.30
2022-11-24T10:17:52.967Z,9.30
2022-11-24T10:20:27.882Z,9.40
2022-11-24T10:23:19.945Z,9.50
2022-11-24T10:25:54.623Z,9.50
2022-11-24T10:28:22.721Z,9.60
2022-11-24T10:30:51.944Z,9.70
2022-11-24T10:33:24.244Z,9.70
2022-11-24T10:36:01.256Z,9.80
2022-11-24T10:38:36.191Z,9.80
2022-11-24T10:41:09.384Z,9.90
2022-11-24T10:43:42.755Z,10.10
2022-11-24T10:46:17.452Z,10.20
2022-11-24T10:48:51.077Z,10.30
2022-11-24T10:51:44.734Z,10.60
2022-11-24T10:54:17.642Z,10.80
2022-11-24T10:56:47.130Z,11.00
2022-11-24T10:59:28.279Z,11.10
2022-11-24T11:01:57.768Z,11.30
2022-11-24T11:04:28.050Z,11.40
2022-11-24T11:07:09.781Z,11.40
2022-11-24T11:09:37.712Z,11.50
2022-11-24T11:12:42.241Z,11.60
2022-11-24T11:15:24.866Z,11.70
2022-11-24T11:17:58.428Z,11.70
2022-11-24T11:20:31.019Z,11.70
2022-11-24T11:23:01.956Z,11.80
2022-11-24T11:25:33.616Z,11.60
2022-11-24T11:28:22.829Z,11.60
2022-11-24T11:31:17.842Z,11.60
2022-11-24T11:34:06.434Z,11.70
2022-11-24T11:36:42.016Z,11.80
2022-11-24T11:39:23.033Z,11.70
2022-11-24T11:41:52.833Z,11.70
2022-11-24T11:44:33.564Z,11.70
2022-11-24T11:47:10.184Z,11.80
2022-11-24T11:49:39.852Z,11.70
2022-11-24T11:52:28.906Z,11.70
2022-11-24T11:55:34.499Z,11.80
2022-11-24T11:58:21.508Z,11.70
2022-11-24T12:00:57.501Z,11.80
2022-11-24T12:03:40.692Z,11.60
2022-11-24T12:06:21.021Z,11.50
2022-11-24T12:09:19.361Z,11.50
2022-11-24T12:11:56.351Z,11.50
2022-11-24T12:14:32.821Z,11.30
2022-11-24T12:17:10.946Z,11.20
2022-11-24T12:19:53.648Z,11.30
2022-11-24T12:22:30.355Z,11.20
2022-11-24T12:25:03.970Z,11.20
2022-11-24T12:27:43.210Z,11.20
2022-11-24T12:30:14.192Z,11.30
2022-11-24T12:33:12.658Z,11.40
2022-11-24T12:35:44.195Z,11.50
2022-11-24T12:38:31.531Z,11.60
2022-11-24T12:41:40.449Z,11.70
2022-11-24T12:44:05.345Z,11.70
2022-11-24T12:46:46.417Z,11.80
2022-11-24T12:49:21.589Z,11.90
2022-11-24T12:51:55.740Z,11.80
2022-11-24T12:54:26.605Z,11.80
2022-11-24T12:57:00.701Z,12.00
2022-11-24T12:59:35.216Z,11.80
2022-11-24T13:02:12.887Z,11.80
2022-11-24T13:04:47.908Z,11.90
2022-11-24T13:07:19.191Z,11.90
2022-11-24T13:10:46.491Z,11.90
2022-11-24T13:13:15.408Z,12.00
2022-11-24T13:19:03.249Z,12.10
2022-11-24T13:21:51.887Z,12.10
2022-11-24T13:24:25.118Z,12.10
2022-11-24T13:26:55.234Z,12.10
2022-11-24T13:29:38.208Z,12.20
2022-11-24T13:32:45.451Z,12.20
2022-11-24T13:35:15.757Z,12.00
2022-11-24T13:37:51.465Z,11.90
2022-11-24T13:40:54.206Z,11.90
2022-11-24T13:43:30.094Z,11.90
2022-11-24T13:45:59.453Z,11.80
2022-11-24T13:49:00.896Z,11.80
2022-11-24T13:51:28.814Z,11.70
2022-11-24T13:54:00.820Z,11.60
2022-11-24T13:56:33.314Z,11.60
2022-11-24T13:59:03.715Z,11.60
2022-11-24T14:01:35.321Z,11.60
2022-11-24T14:07:06.747Z,11.60
2022-11-24T14:09:41.407Z,11.70
2022-11-24T14:12:16.142Z,11.70
2022-11-24T14:14:51.996Z,11.80
2022-11-24T14:17:23.605Z,11.90
2022-11-24T14:19:53.391Z,11.90
2022-11-24T14:22:23.471Z,11.80
2022-11-24T14:24:56.609Z,11.60
2022-11-24T14:27:30.754Z,11.60
2022-11-24T14:30:00.812Z,11.50
2022-11-24T14:32:31.628Z,11.50
2022-11-24T14:34:59.602Z,11.40
2022-11-24T14:37:27.539Z,11.30
2022-11-24T14:40:00.378Z,11.20
2022-11-24T14:42:30.551Z,11.20
2022-11-24T14:45:04.198Z,11.00
2022-11-24T14:47:45.367Z,10.90
2022-11-24T14:50:19.629Z,10.80
2022-11-24T14:52:54.073Z,10.80
2022-11-24T14:55:32.219Z,10.70
2022-11-24T14:58:00.448Z,10.70
2022-11-24T15:00:31.012Z,10.70
2022-11-24T15:03:16.941Z,10.60
2022-11-24T15:05:54.064Z,10.40
2022-11-24T15:08:22.595Z,10.40
2022-11-24T15:10:58.446Z,10.30
2022-11-24T15:13:26.965Z,10.20
2022-11-24T15:16:02.126Z,10.00
2022-11-24T15:18:38.126Z,10.00
2022-11-24T15:21:06.141Z,9.80
2022-11-24T15:23:35.074Z,9.70
2022-11-24T15:26:30.270Z,9.60
2022-11-24T15:28:59.977Z,9.50
2022-11-24T15:31:27.801Z,9.40
2022-11-24T15:33:56.945Z,9.30
2022-11-24T15:36:24.724Z,9.10
2022-11-24T15:38:52.781Z,9.00
2022-11-24T15:41:22.211Z,9.00
2022-11-24T15:43:50.039Z,8.90
2022-11-24T15:46:17.813Z,8.80
2022-11-24T15:48:45.635Z,8.70
2022-11-24T15:51:15.859Z,8.60
2022-11-24T15:53:47.041Z,8.50
2022-11-24T15:56:18.716Z,8.40
2022-11-24T15:58:46.464Z,8.30
2022-11-24T16:01:14.310Z,8.20
2022-11-24T16:03:47.527Z,8.10
2022-11-24T16:06:24.286Z,8.10
2022-11-24T16:08:53.568Z,8.00
2022-11-24T16:11:21.390Z,7.90
2022-11-24T16:13:53.004Z,7.80
2022-11-24T16:16:22.543Z,7.80
2022-11-24T16:18:50.531Z,7.70
2022-11-24T16:21:19.713Z,7.60
2022-11-24T16:23:48.630Z,7.50
2022-11-24T16:26:16.451Z,7.50
2022-11-24T16:28:45.610Z,7.40
2022-11-24T16:31:15.561Z,7.40
2022-11-24T16:33:44.662Z,7.30
2022-11-24T16:36:12.921Z,7.20
2022-11-24T16:38:42.131Z,7.20
2022-11-24T16:41:10.328Z,7.10
2022-11-24T16:43:38.576Z,7.10
2022-11-24T16:46:18.085Z,7.00
2022-11-24T16:48:46.383Z,7.00
2022-11-24T16:51:14.690Z,6.90
2022-11-24T16:53:44.412Z,6.80
2022-11-24T16:56:13.183Z,6.70
2022-11-24T16:58:42.063Z,6.70
2022-11-24T17:01:11.742Z,6.60
2022-11-24T17:03:40.097Z,6.50
2022-11-24T17:06:10.145Z,6.50
2022-11-24T17:08:40.276Z,6.40
2022-11-24T17:11:10.706Z,6.30
2022-11-24T17:13:39.016Z,6.30
2022-11-24T17:16:07.842Z,6.20
2022-11-24T17:18:37.123Z,6.20
2022-11-24T17:21:09.522Z,6.10
2022-11-24T17:23:37.749Z,6.10
2022-11-24T17:26:08.189Z,6.00
2022-11-24T17:28:37.595Z,5.90
2022-11-24T17:31:08.859Z,5.90
2022-11-24T17:33:37.121Z,5.90
2022-11-24T17:36:05.919Z,5.80
2022-11-24T17:38:35.038Z,5.80
2022-11-24T17:41:03.042Z,5.70
2022-11-24T17:43:30.816Z,5.70
2022-11-24T17:46:01.963Z,5.70
2022-11-24T17:48:30.491Z,5.60
2022-11-24T17:51:03.253Z,5.60
2022-11-24T17:53:31.654Z,5.50
2022-11-24T17:56:03.191Z,5.50
2022-11-24T17:58:37.166Z,5.50
2022-11-24T18:01:09.755Z,5.50
2022-11-24T18:03:39.134Z,5.50
2022-11-24T18:06:08.272Z,5.40
2022-11-24T18:08:36.851Z,5.40
2022-11-24T18:11:05.864Z,5.40
2022-11-24T18:13:55.788Z,5.30
2022-11-24T18:16:28.243Z,5.30
2022-11-24T18:19:07.754Z,5.30
2022-11-24T18:21:36.314Z,5.20
2022-11-24T18:24:04.259Z,5.20
2022-11-24T18:26:32.111Z,5.20
2022-11-24T18:28:59.877Z,5.20
2022-11-24T18:31:31.045Z,5.20
2022-11-24T18:34:00.128Z,5.20
2022-11-24T18:36:30.585Z,5.10
2022-11-24T18:38:58.739Z,5.10
2022-11-24T18:41:27.015Z,5.10
2022-11-24T18:43:54.828Z,5.00
2022-11-24T18:46:22.913Z,5.00
2022-11-24T18:48:53.048Z,5.00
2022-11-24T18:51:22.679Z,5.00
2022-11-24T18:53:55.376Z,5.00
2022-11-24T18:56:23.416Z,5.00
2022-11-24T18:58:54.073Z,5.00
2022-11-24T19:01:24.337Z,5.00
2022-11-24T19:03:55.289Z,5.00
2022-11-24T19:06:26.871Z,5.00
2022-11-24T19:08:56.194Z,5.00
2022-11-24T19:11:26.044Z,5.00
2022-11-24T19:13:54.115Z,5.00
2022-11-24T19:16:22.935Z,5.00
2022-11-24T19:18:53.909Z,5.00
2022-11-24T19:21:24.446Z,5.00
2022-11-24T19:23:52.375Z,4.90
2022-11-24T19:26:20.844Z,4.90
2022-11-24T19:28:48.870Z,4.90
2022-11-24T19:31:18.920Z,4.90
2022-11-24T19:33:47.070Z,4.90
2022-11-24T19:36:16.928Z,4.80
2022-11-24T19:38:50.884Z,4.80
2022-11-24T19:41:20.382Z,4.80
2022-11-24T19:43:49.007Z,4.70
2022-11-24T19:46:18.554Z,4.70
2022-11-24T19:48:48.587Z,4.70
2022-11-24T19:51:18.987Z,4.60
2022-11-24T19:53:48.530Z,4.60
2022-11-24T19:56:19.524Z,4.60
2022-11-24T19:58:48.128Z,4.60
2022-11-24T20:01:17.570Z,4.50
2022-11-24T20:03:49.234Z,4.50
2022-11-24T20:06:18.108Z,4.50
2022-11-24T20:08:46.038Z,4.50
2022-11-24T20:11:17.120Z,4.50
2022-11-24T20:13:48.467Z,4.40
2022-11-24T20:16:18.433Z,4.40
2022-11-24T20:18:47.923Z,4.40
2022-11-24T20:21:17.348Z,4.40
2022-11-24T20:23:48.331Z,4.40
2022-11-24T20:26:22.999Z,4.30
2022-11-24T20:28:51.759Z,4.30
2022-11-24T20:31:22.680Z,4.30
2022-11-24T20:33:50.876Z,4.30
2022-11-24T20:36:20.824Z,4.20
2022-11-24T20:38:49.605Z,4.20
2022-11-24T20:41:21.016Z,4.20
2022-11-24T20:43:50.084Z,4.20
2022-11-24T20:46:20.519Z,4.10
2022-11-24T20:48:48.505Z,4.10
2022-11-24T20:51:18.128Z,4.10
2022-11-24T20:53:45.910Z,4.10
2022-11-24T20:56:15.984Z,4.10
2022-11-24T20:58:45.405Z,4.10
2022-11-24T21:01:15.413Z,4.10
2022-11-24T21:03:43.813Z,4.10
2022-11-24T21:06:12.410Z,4.10
2022-11-24T21:08:41.783Z,4.00
2022-11-24T21:11:11.279Z,4.00
2022-11-24T21:13:40.919Z,4.00
2022-11-24T21:16:18.408Z,4.00
2022-11-24T21:18:47.359Z,4.00
2022-11-24T21:21:15.307Z,3.90
2022-11-24T21:23:45.050Z,3.90
2022-11-24T21:26:16.576Z,3.90
2022-11-24T21:28:46.535Z,3.90
2022-11-24T21:31:18.083Z,3.90
2022-11-24T21:33:47.722Z,3.80
2022-11-24T21:36:17.646Z,3.80
2022-11-24T21:38:50.467Z,3.80
2022-11-24T21:41:18.395Z,3.80
2022-11-24T21:43:46.366Z,3.80
2022-11-24T21:46:15.240Z,3.80
2022-11-24T21:48:44.950Z,3.70
2022-11-24T21:51:15.435Z,3.70
2022-11-24T21:53:43.511Z,3.70
2022-11-24T21:56:13.644Z,3.70
2022-11-24T21:58:46.486Z,3.70
2022-11-24T22:01:15.152Z,3.70
2022-11-24T22:03:45.648Z,3.60
2022-11-24T22:06:13.594Z,3.60
2022-11-24T22:08:41.554Z,3.60
2022-11-24T22:11:13.101Z,3.60
2022-11-24T22:13:41.914Z,3.50
2022-11-24T22:16:11.832Z,3.50
2022-11-24T22:18:41.763Z,3.50
2022-11-24T22:21:15.048Z,3.50
2022-11-24T22:23:43.413Z,3.50
2022-11-24T22:26:14.328Z,3.40
2022-11-24T22:28:42.650Z,3.40
2022-11-24T22:31:12.491Z,3.40
2022-11-24T22:33:40.496Z,3.40
2022-11-24T22:36:10.938Z,3.40
2022-11-24T22:38:39.028Z,3.30
2022-11-24T22:41:08.556Z,3.30
2022-11-24T22:43:38.404Z,3.30
2022-11-24T22:46:07.470Z,3.20
2022-11-24T22:48:36.029Z,3.20
2022-11-24T22:51:04.902Z,3.20
2022-11-24T22:53:34.437Z,3.20
2022-11-24T22:56:02.651Z,3.20
2022-11-24T22:58:31.064Z,3.20
2022-11-24T23:01:04.047Z,3.10
2022-11-24T23:03:31.937Z,3.10
2022-11-24T23:06:00.595Z,3.10
2022-11-24T23:08:28.446Z,3.10
2022-11-24T23:11:01.988Z,3.10
2022-11-24T23:13:29.859Z,3.10
2022-11-24T23:16:01.641Z,3.10
2022-11-24T23:18:30.390Z,3.10
2022-11-24T23:20:58.427Z,3.20
2022-11-24T23:23:26.216Z,3.10
2022-11-24T23:25:54.089Z,3.10
2022-11-24T23:28:23.216Z,3.10
2022-11-24T23:30:51.041Z,3.00
2022-11-24T23:33:18.856Z,3.00
2022-11-24T23:35:46.628Z,3.00
2022-11-24T23:38:14.432Z,3.00
2022-11-24T23:40:42.232Z,3.00
2022-11-24T23:43:10.042Z,3.00
2022-11-24T23:45:39.224Z,3.00
2022-11-24T23:48:08.436Z,3.00
2022-11-24T23:50:36.376Z,3.00
2022-11-24T23:53:04.312Z,3.00
2022-11-24T23:55:33.076Z,3.00
2022-11-24T23:58:00.872Z,3.00
